Time,TemperatureF,DewpointF,PressureIn,WindDirection,WindDirectionDegrees,WindSpeedMPH,WindSpeedGustMPH,Humidity,HourlyPrecipIn,Conditions,Clouds,dailyrainin,SoftwareType,DateUTC
2013-01-30 00:02:00,55.5,51.0,29.72,South,180,11.0,-999.0,86,-99.99,,,0.00,weatherlink.com 1.10,2013-01-30 05:02:00,
2013-01-30 00:17:00,55.4,51.0,29.71,South,172,7.0,-999.0,86,-99.99,,,0.02,weatherlink.com 1.10,2013-01-30 05:17:00,
2013-01-30 00:32:00,54.9,51.0,29.70,SSE,147,0.0,-999.0,86,-99.99,,,0.02,weatherlink.com 1.10,2013-01-30 05:32:00,
2013-01-30 00:47:00,54.0,50.0,29.68,SSE,147,9.0,-999.0,86,-99.99,,,0.02,weatherlink.com 1.10,2013-01-30 05:47:00,
2013-01-30 01:02:00,54.2,50.0,29.66,SE,133,9.0,-999.0,86,-99.99,,,0.03,weatherlink.com 1.10,2013-01-30 06:02:00,
2013-01-30 01:17:00,53.9,50.0,29.65,SE,137,11.0,-999.0,87,-99.99,,,0.03,weatherlink.com 1.10,2013-01-30 06:17:00,
2013-01-30 01:32:00,53.5,50.0,29.63,ESE,122,0.0,-999.0,86,-99.99,,,0.03,weatherlink.com 1.10,2013-01-30 06:32:00,
2013-01-30 01:47:00,52.9,49.0,29.61,ESE,114,7.0,-999.0,86,-99.99,,,0.03,weatherlink.com 1.10,2013-01-30 06:47:00,
2013-01-30 02:02:00,52.4,48.0,29.61,SE,128,4.0,-999.0,86,-99.99,,,0.03,weatherlink.com 1.10,2013-01-30 07:02:00,
2013-01-30 02:17:00,51.2,48.0,29.60,SE,134,0.0,-999.0,87,-99.99,,,0.03,weatherlink.com 1.10,2013-01-30 07:17:00,
2013-01-30 02:32:00,50.8,47.0,29.59,SSE,147,5.0,-999.0,87,-99.99,,,0.03,weatherlink.com 1.10,2013-01-30 07:32:00,
2013-01-30 02:47:00,53.8,50.0,29.56,SSE,163,16.0,-999.0,87,-99.99,,,0.03,weatherlink.com 1.10,2013-01-30 07:47:00,
2013-01-30 03:02:00,56.7,52.0,29.56,South,169,16.0,-999.0,84,-99.99,,,0.03,weatherlink.com 1.10,2013-01-30 08:02:00,
2013-01-30 03:17:00,57.8,52.0,29.55,South,184,16.0,-999.0,82,-99.99,,,0.03,weatherlink.com 1.10,2013-01-30 08:17:00,
2013-01-30 03:32:00,58.4,52.0,29.54,South,190,22.0,-999.0,80,-99.99,,,0.03,weatherlink.com 1.10,2013-01-30 08:32:00,
2013-01-30 03:47:00,58.4,52.0,29.53,South,182,17.0,-999.0,80,-99.99,,,0.03,weatherlink.com 1.10,2013-01-30 08:47:00,
2013-01-30 04:02:00,58.3,52.0,29.52,SSE,162,14.0,-999.0,80,-99.99,,,0.03,weatherlink.com 1.10,2013-01-30 09:02:00,
2013-01-30 04:17:00,58.0,52.0,29.51,South,176,10.0,-999.0,79,-99.99,,,0.03,weatherlink.com 1.10,2013-01-30 09:17:00,
2013-01-30 04:32:00,58.3,52.0,29.50,South,182,14.0,-999.0,79,-99.99,,,0.03,weatherlink.com 1.10,2013-01-30 09:32:00,
2013-01-30 04:47:00,58.6,52.0,29.50,South,186,15.0,-999.0,78,-99.99,,,0.03,weatherlink.com 1.10,2013-01-30 09:47:00,
2013-01-30 05:02:00,59.0,52.0,29.49,South,174,13.0,-999.0,77,-99.99,,,0.03,weatherlink.com 1.10,2013-01-30 10:02:00,
2013-01-30 05:17:00,59.2,52.0,29.47,South,177,11.0,-999.0,76,-99.99,,,0.03,weatherlink.com 1.10,2013-01-30 10:17:00,
2013-01-30 05:33:00,59.6,52.0,29.46,South,182,20.0,-999.0,75,-99.99,,,0.03,weatherlink.com 1.10,2013-01-30 10:33:00,
2013-01-30 05:48:00,59.3,52.0,29.45,SSE,164,17.0,-999.0,76,-99.99,,,0.03,weatherlink.com 1.10,2013-01-30 10:48:00,
2013-01-30 06:03:00,59.6,52.0,29.44,South,169,16.0,-999.0,76,-99.99,,,0.03,weatherlink.com 1.10,2013-01-30 11:03:00,
2013-01-30 06:18:00,58.8,51.0,29.42,SSE,157,11.0,-999.0,76,-99.99,,,0.03,weatherlink.com 1.10,2013-01-30 11:18:00,
2013-01-30 06:33:00,57.9,51.0,29.42,SSE,159,11.0,-999.0,79,-99.99,,,0.03,weatherlink.com 1.10,2013-01-30 11:33:00,
2013-01-30 06:48:00,58.2,51.0,29.41,SSE,163,10.0,-999.0,78,-99.99,,,0.03,weatherlink.com 1.10,2013-01-30 11:48:00,
2013-01-30 07:03:00,56.3,50.0,29.40,ESE,122,7.0,-999.0,79,-99.99,,,0.03,weatherlink.com 1.10,2013-01-30 12:03:00,
2013-01-30 07:18:00,55.7,50.0,29.39,South,180,13.0,-999.0,81,-99.99,,,0.03,weatherlink.com 1.10,2013-01-30 12:18:00,
2013-01-30 07:33:00,58.9,52.0,29.39,South,173,12.0,-999.0,77,-99.99,,,0.03,weatherlink.com 1.10,2013-01-30 12:33:00,
2013-01-30 07:48:00,59.7,52.0,29.39,South,178,14.0,-999.0,75,-99.99,,,0.03,weatherlink.com 1.10,2013-01-30 12:48:00,
2013-01-30 08:03:00,59.6,52.0,29.38,South,175,15.0,-999.0,76,-99.99,,,0.03,weatherlink.com 1.10,2013-01-30 13:03:00,
2013-01-30 08:18:00,60.3,52.0,29.38,South,188,15.0,-999.0,74,-99.99,,,0.03,weatherlink.com 1.10,2013-01-30 13:18:00,
2013-01-30 08:33:00,60.9,52.0,29.37,South,175,14.0,-999.0,73,-99.99,,,0.03,weatherlink.com 1.10,2013-01-30 13:33:00,
2013-01-30 08:48:00,61.0,52.0,29.36,SSW,202,15.0,-999.0,73,-99.99,,,0.03,weatherlink.com 1.10,2013-01-30 13:48:00,
2013-01-30 09:03:00,60.6,52.0,29.34,SSE,167,12.0,-999.0,74,-99.99,,,0.03,weatherlink.com 1.10,2013-01-30 14:03:00,
2013-01-30 09:18:00,61.0,52.0,29.33,South,171,19.0,-999.0,73,-99.99,,,0.03,weatherlink.com 1.10,2013-01-30 14:18:00,
2013-01-30 09:33:00,61.4,53.0,29.33,SSW,210,11.0,-999.0,73,-99.99,,,0.03,weatherlink.com 1.10,2013-01-30 14:33:00,
2013-01-30 09:48:00,61.2,53.0,29.32,South,182,13.0,-999.0,75,-99.99,,,0.03,weatherlink.com 1.10,2013-01-30 14:48:00,
2013-01-30 10:03:00,60.8,54.0,29.33,SSW,194,7.0,-999.0,77,-99.99,,,0.04,weatherlink.com 1.10,2013-01-30 15:03:00,
2013-01-30 10:18:00,60.5,54.0,29.32,South,188,17.0,-999.0,78,-99.99,,,0.05,weatherlink.com 1.10,2013-01-30 15:18:00,
2013-01-30 10:33:00,59.1,53.0,29.30,South,180,12.0,-999.0,81,-99.99,,,0.07,weatherlink.com 1.10,2013-01-30 15:33:00,
2013-01-30 10:48:00,58.8,54.0,29.30,South,180,18.0,-999.0,83,-99.99,,,0.09,weatherlink.com 1.10,2013-01-30 15:48:00,
2013-01-30 11:03:00,58.9,54.0,29.29,South,180,21.0,-999.0,83,-99.99,,,0.10,weatherlink.com 1.10,2013-01-30 16:03:00,
2013-01-30 11:18:00,58.9,54.0,29.35,SW,232,11.0,-999.0,83,-99.99,,,0.12,weatherlink.com 1.10,2013-01-30 16:18:00,
2013-01-30 11:33:00,57.8,53.0,29.34,SSW,202,8.0,-999.0,85,-99.99,,,0.13,weatherlink.com 1.10,2013-01-30 16:33:00,
2013-01-30 11:48:00,58.0,54.0,29.32,SSW,205,10.0,-999.0,86,-99.99,,,0.13,weatherlink.com 1.10,2013-01-30 16:48:00,
2013-01-30 12:03:00,58.8,55.0,29.32,SW,215,15.0,-999.0,86,-99.99,,,0.13,weatherlink.com 1.10,2013-01-30 17:03:00,
2013-01-30 12:18:00,59.8,55.0,29.31,SSW,205,16.0,-999.0,84,-99.99,,,0.13,weatherlink.com 1.10,2013-01-30 17:18:00,
2013-01-30 12:33:00,60.7,56.0,29.25,SSE,153,12.0,-999.0,83,-99.99,,,0.13,weatherlink.com 1.10,2013-01-30 17:33:00,
2013-01-30 12:48:00,61.1,56.0,29.27,SSW,195,8.0,-999.0,82,-99.99,,,0.13,weatherlink.com 1.10,2013-01-30 17:48:00,
2013-01-30 13:03:00,61.1,55.0,29.25,South,170,14.0,-999.0,81,-99.99,,,0.13,weatherlink.com 1.10,2013-01-30 18:03:00,
2013-01-30 13:18:00,61.2,55.0,29.24,South,181,16.0,-999.0,80,-99.99,,,0.13,weatherlink.com 1.10,2013-01-30 18:18:00,
2013-01-30 13:33:00,61.6,55.0,29.26,South,188,18.0,-999.0,78,-99.99,,,0.13,weatherlink.com 1.10,2013-01-30 18:33:00,
2013-01-30 13:48:00,61.8,55.0,29.27,SSW,204,24.0,-999.0,77,-99.99,,,0.13,weatherlink.com 1.10,2013-01-30 18:48:00,
2013-01-30 14:03:00,62.1,54.0,29.25,South,179,20.0,-999.0,75,-99.99,,,0.13,weatherlink.com 1.10,2013-01-30 19:03:00,
2013-01-30 14:18:00,61.9,54.0,29.24,South,171,20.0,-999.0,75,-99.99,,,0.13,weatherlink.com 1.10,2013-01-30 19:18:00,
2013-01-30 14:33:00,62.0,54.0,29.24,South,179,17.0,-999.0,74,-99.99,,,0.13,weatherlink.com 1.10,2013-01-30 19:33:00,
2013-01-30 14:48:00,61.4,53.0,29.20,SSE,165,22.0,-999.0,75,-99.99,,,0.13,weatherlink.com 1.10,2013-01-30 19:48:00,
2013-01-30 15:03:00,61.3,53.0,29.21,SSE,167,22.0,-999.0,74,-99.99,,,0.13,weatherlink.com 1.10,2013-01-30 20:03:00,
2013-01-30 15:18:00,61.3,53.0,29.21,South,175,16.0,-999.0,74,-99.99,,,0.13,weatherlink.com 1.10,2013-01-30 20:18:00,
2013-01-30 15:34:00,61.0,53.0,29.23,South,181,14.0,-999.0,74,-99.99,,,0.13,weatherlink.com 1.10,2013-01-30 20:34:00,
2013-01-30 15:49:00,60.9,53.0,29.23,South,173,23.0,-999.0,74,-99.99,,,0.13,weatherlink.com 1.10,2013-01-30 20:49:00,
2013-01-30 16:04:00,60.7,52.0,29.23,SW,215,9.0,-999.0,74,-99.99,,,0.13,weatherlink.com 1.10,2013-01-30 21:04:00,
2013-01-30 16:19:00,60.7,52.0,29.25,WSW,238,3.0,-999.0,74,-99.99,,,0.13,weatherlink.com 1.10,2013-01-30 21:19:00,
2013-01-30 16:34:00,60.0,52.0,29.24,SW,223,6.0,-999.0,76,-99.99,,,0.13,weatherlink.com 1.10,2013-01-30 21:34:00,
2013-01-30 16:49:00,59.6,52.0,29.24,SW,225,7.0,-999.0,77,-99.99,,,0.13,weatherlink.com 1.10,2013-01-30 21:49:00,
2013-01-30 17:04:00,59.1,52.0,29.25,South,184,5.0,-999.0,78,-99.99,,,0.13,weatherlink.com 1.10,2013-01-30 22:04:00,
2013-01-30 17:19:00,58.9,52.0,29.24,SSW,203,14.0,-999.0,78,-99.99,,,0.13,weatherlink.com 1.10,2013-01-30 22:19:00,
2013-01-30 17:34:00,58.6,51.0,29.25,SSW,208,5.0,-999.0,77,-99.99,,,0.13,weatherlink.com 1.10,2013-01-30 22:34:00,
2013-01-30 17:49:00,58.4,51.0,29.25,WSW,246,3.0,-999.0,77,-99.99,,,0.13,weatherlink.com 1.10,2013-01-30 22:49:00,
2013-01-30 18:04:00,56.2,50.0,29.25,SW,215,6.0,-999.0,80,-99.99,,,0.13,weatherlink.com 1.10,2013-01-30 23:04:00,
2013-01-30 18:19:00,55.0,49.0,29.23,SSW,198,0.0,-999.0,81,-99.99,,,0.13,weatherlink.com 1.10,2013-01-30 23:19:00,
2013-01-30 18:34:00,55.3,50.0,29.19,SSE,161,9.0,-999.0,82,-99.99,,,0.13,weatherlink.com 1.10,2013-01-30 23:34:00,
2013-01-30 18:49:00,57.0,51.0,29.19,South,173,12.0,-999.0,79,-99.99,,,0.13,weatherlink.com 1.10,2013-01-30 23:49:00,
2013-01-30 19:04:00,57.4,51.0,29.19,SSW,194,8.0,-999.0,78,-99.99,,,0.13,weatherlink.com 1.10,2013-01-31 00:04:00,
2013-01-30 19:19:00,57.1,50.0,29.17,South,188,1.0,-999.0,78,-99.99,,,0.13,weatherlink.com 1.10,2013-01-31 00:19:00,
2013-01-30 19:34:00,56.8,51.0,29.19,SSW,213,8.0,-999.0,80,-99.99,,,0.13,weatherlink.com 1.10,2013-01-31 00:34:00,
2013-01-30 19:49:00,57.0,51.0,29.16,South,186,11.0,-999.0,79,-99.99,,,0.13,weatherlink.com 1.10,2013-01-31 00:49:00,
2013-01-30 20:04:00,56.8,50.0,29.16,SSW,195,11.0,-999.0,79,-99.99,,,0.13,weatherlink.com 1.10,2013-01-31 01:04:00,
2013-01-30 20:19:00,56.5,50.0,29.17,SSW,209,11.0,-999.0,80,-99.99,,,0.13,weatherlink.com 1.10,2013-01-31 01:19:00,
2013-01-30 20:34:00,56.5,50.0,29.16,SSW,196,22.0,-999.0,80,-99.99,,,0.13,weatherlink.com 1.10,2013-01-31 01:34:00,
2013-01-30 20:49:00,56.5,50.0,29.15,South,190,15.0,-999.0,80,-99.99,,,0.13,weatherlink.com 1.10,2013-01-31 01:49:00,
2013-01-30 21:04:00,56.4,50.0,29.14,South,191,19.0,-999.0,80,-99.99,,,0.13,weatherlink.com 1.10,2013-01-31 02:04:00,
2013-01-30 21:19:00,56.3,50.0,29.14,South,188,16.0,-999.0,80,-99.99,,,0.13,weatherlink.com 1.10,2013-01-31 02:19:00,
2013-01-30 21:34:00,56.2,50.0,29.13,South,183,11.0,-999.0,81,-99.99,,,0.13,weatherlink.com 1.10,2013-01-31 02:34:00,
2013-01-30 21:49:00,55.4,50.0,29.12,South,186,7.0,-999.0,82,-99.99,,,0.13,weatherlink.com 1.10,2013-01-31 02:49:00,
2013-01-30 22:04:00,54.5,50.0,29.10,SSE,163,7.0,-999.0,84,-99.99,,,0.14,weatherlink.com 1.10,2013-01-31 03:04:00,
2013-01-30 22:19:00,53.9,50.0,29.08,SSE,155,9.0,-999.0,86,-99.99,,,0.16,weatherlink.com 1.10,2013-01-31 03:19:00,
2013-01-30 22:34:00,53.5,50.0,29.06,SSE,166,0.0,-999.0,86,-99.99,,,0.17,weatherlink.com 1.10,2013-01-31 03:34:00,
2013-01-30 22:49:00,52.7,49.0,29.06,SSE,163,0.0,-999.0,86,-99.99,,,0.19,weatherlink.com 1.10,2013-01-31 03:49:00,
2013-01-30 23:04:00,52.4,49.0,29.05,SSE,148,6.0,-999.0,87,-99.99,,,0.19,weatherlink.com 1.10,2013-01-31 04:04:00,
2013-01-30 23:19:00,53.1,49.0,29.02,SSE,152,10.0,-999.0,87,-99.99,,,0.19,weatherlink.com 1.10,2013-01-31 04:19:00,
2013-01-30 23:34:00,53.3,50.0,29.02,SSE,156,7.0,-999.0,87,-99.99,,,0.20,weatherlink.com 1.10,2013-01-31 04:34:00,
2013-01-30 23:49:00,53.1,49.0,29.01,SSE,148,8.0,-999.0,87,-99.99,,,0.21,weatherlink.com 1.10,2013-01-31 04:49:00,